This is the latest recevied weather packets stored in our database for station/object SP3ZBZ-13. If no packets are shown the sender has not sent any weather packets the latest 10 day(s).
| Time | Temp. | Humidity | Pressure | Rain* | Wind** | Luminosity | Snow |
|---|---|---|---|---|---|---|---|
| 1788442704 | 19.44° C | 65% | 1010.6 hPa | - | - | 208 W/m² | - |
| 1788441802 | 19.44° C | 68% | 1010.9 hPa | - | - | 212 W/m² | - |
| 1788440902 | 20° C | 64% | 1011.1 hPa | - | - | 282 W/m² | - |
| 1788440000 | 19.44° C | 68% | 1011.2 hPa | - | - | 232 W/m² | - |
| 1788439099 | 18.89° C | 69% | 1011.3 hPa | - | - | 160 W/m² | - |
| 1788438198 | 18.89° C | 70% | 1011.5 hPa | - | - | 162 W/m² | - |
| 1788437297 | 18.89° C | 67% | 1011.6 hPa | - | - | 156 W/m² | - |
| 1788436396 | 19.44° C | 70% | 1011.7 hPa | - | - | 238 W/m² | - |
| 1788435495 | 19.44° C | 66% | 1011.8 hPa | - | - | 158 W/m² | - |
| 1788434593 | 19.44° C | 65% | 1011.9 hPa | - | - | 172 W/m² | - |
| 1788433692 | 18.89° C | 70% | 1012 hPa | - | - | 147 W/m² | - |
| 1788432792 | 20° C | 64% | 1012.1 hPa | - | - | 106 W/m² | - |
| 1788431891 | 20.56° C | 62% | 1012 hPa | - | - | 286 W/m² | - |
| 1788430990 | 20.56° C | 62% | 1012.2 hPa | - | - | 245 W/m² | - |
| 1788430088 | 20.56° C | 59% | 1012.2 hPa | - | - | 270 W/m² | - |
| 1788429187 | 20.56° C | 64% | 1012.3 hPa | - | - | 312 W/m² | - |
| 1788428286 | 20.56° C | 61% | 1012.4 hPa | - | - | 352 W/m² | - |
| 1788427386 | 20.56° C | 62% | 1012.5 hPa | - | - | 294 W/m² | - |
| 1788426484 | 20° C | 64% | 1012.6 hPa | - | - | 351 W/m² | - |
| 1788425583 | 20° C | 65% | 1012.7 hPa | - | - | 321 W/m² | - |
| 1788424682 | 20° C | 59% | 1012.7 hPa | - | - | 249 W/m² | - |
| 1788423781 | 19.44° C | 67% | 1012.8 hPa | - | - | 304 W/m² | - |
| 1788422880 | 18.33° C | 68% | 1012.8 hPa | - | - | 237 W/m² | - |
| 1788421979 | 18.33° C | 70% | 1012.8 hPa | - | - | 277 W/m² | - |
| 1788421078 | 17.22° C | 75% | 1012.8 hPa | - | - | 157 W/m² | - |
* Rain since midnight (hover to see other rain measurements)
** Current wind speed in m/s (hover to see current wind gust speed)